Portada
METAR-TAF:

METAR-TAF

Aeroports :

Koror, Babeldaob, Palau

latitud: 07-22N, longitud: 134-32E, altitud: 54 m

Observació

L'informe es va fer fa 1 hora i 6 minuts, a les 14:50 UTC
Vent 7 kt del Est/Nord-Est
Temperatura 27°C
Humitat 84%
Pressió 1011 hPa
Visibilitat: 22.5 km
Cel ennuvolat a una alçada de 1600 ft, Cumulonimbus.
Cel cobert a una alçada de 30000 ft

METAR: PTRO 201450Z 06007KT 14SM BKN016CB OVC300 27/24 A2986 RMK CB ALQDS

Hora: 00:56 (15:56 UTC)

Pronòstic

L'informe es va fer fa 4 hores i 18 minuts, a les 11:38 UTC
Pronòstic vàlid del 20 a les 12 UTC al 21 a les 12 UTC
Vent 11 kt del Est
Visibilitat: 10 km
Núvols disperses a una alçada de 1500 ft
Cel ennuvolat a una alçada de 4000 ft
Cel ennuvolat a una alçada de 11000 ft
xàfecs en les proximitats

TAF: PTRO 201138Z 2012/2112 08011KT P6SM VCSH SCT015 BKN040 BKN110

Observacions i pronòstics meteorològics de més de 4000 aeroports (METAR i TAF).

Les estacions disponibles són els punts grocs i vermells al mapa.

Posi el ratolí al punt desitjat per veure el nom de l'estació.

Feu clic per veure les observacions i els pronòstics meteorològics.

Per canviar el mapa: feu clic els botons verds amb una creu de color negre per apropar; al botó verd amb un guió per allunyar la imatge; o en les fletxes verdes per a mapes adjacents.


METAR-TAF: